• Join FlightAware (Why Join?)
  • Login
  • US Flag 
 
10:50AM EST


 

Airport Tracker/Info


-or-


 

Live Flight TrackerFlight Track Log ✈ EGF4492 ✈ 11-Jun-2013 ✈ KDCA - KJFK

Flight Track Log - Related Links

Times and Time Zones

All times are in EDT time to prevent confusion due to time zone crossing. See the EGF4492 flight status page for this flight to view local times or setup timezone preferences in your user account.

Time Position Orientation Groundspeed Altitude Reporting Facility
EDT Latitude Longitude Course Direction KTS MPH feet Rate Location/Type
07:52PM 38.9000 -77.0833 74° East 190 219 3,500  Level Potomac TRACON
07:53PM 38.9000 -76.7869 90° East  Level FlightAware Approximate
07:53PM 38.9333 -77.1333 311° West 194 223 6,400  Level Potomac TRACON
07:54PM 38.9289 -76.7089 57° Northeast  Level FlightAware Approximate
07:55PM 38.9544 -76.6264 70° East  Level FlightAware Approximate
07:55PM 38.9928 -76.9964 61° Northeast 238 274 10,800  Level Washington Center
07:56PM 38.9769 -76.5424 72° East  Level FlightAware Approximate
07:56PM 38.9983 -76.8764 87° East 275 316 12,100  Level Washington Center
07:57PM 38.9966 -76.4571 74° East  Level FlightAware Approximate
07:57PM 39.0058 -76.7483 86° East 321 369 13,900  Level Washington Center
07:58PM 39.0133 -76.6175 86° East 353 406 15,400 1,500 Climbing Washington Center
07:59PM 39.0183 -76.4839 87° East 367 422 16,900 780 Climbing Washington Center
08:00PM 39.0256 -76.3425 86° East 378 435 17,000  Climbing Washington Center
08:01PM 39.0328 -76.1903 86° East 400 460 17,000 -60 Level Washington Center
08:02PM 39.0458 -76.0325 84° East 425 489 16,900 -60 Descending Washington Center
08:03PM 39.0506 -75.8750 88° East 436 502 16,900  Level Washington Center
08:04PM 39.0717 -75.7281 79° East 436 502 16,900  Level Washington Center
08:05PM 39.1281 -75.5917 62° Northeast 421 484 16,900  Level Washington Center
08:06PM 39.1822 -75.4603 62° Northeast 415 478 16,900  Level Washington Center
08:07PM 39.2361 -75.3236 63° Northeast 415 478 16,900  Level Washington Center
08:08PM 39.2856 -75.1867 65° Northeast 415 478 16,900  Level Washington Center
08:09PM 39.3353 -75.0631 62° Northeast 420 483 16,900  Level Washington Center
08:10PM 39.3886 -74.9283 63° Northeast 425 489 16,900  Level Washington Center
08:11PM 39.4419 -74.7853 64° Northeast 430 495 16,900  Level Washington Center
08:13PM 39.5272 -74.5631 63° Northeast 418 481 16,900  Level New York Center
08:14PM 39.5728 -74.4444 63° Northeast 385 443 16,900  Level New York Center
08:15PM 39.6114 -74.3439 63° Northeast 327 376 16,900 -360 Level New York Center
08:16PM 39.6497 -74.2408 64° Northeast 291 335 16,200 -960 Descending New York Center
08:17PM 39.6919 -74.1511 59° Northeast 286 329 15,000 -1,440 Descending New York Center
08:18PM 39.7500 -74.0892 39° Northeast 273 314 13,400 -1,020 Descending New York Center
08:19PM 39.7994 -74.0375 39° Northeast 260 299 13,000 -240 Descending New York Center
08:20PM 39.8553 -73.9778 39° Northeast 260 299 13,000  Level New York Center
08:21PM 39.9233 -73.9322 27° Northeast 250 288 13,000  Level New York Center
08:22PM 39.9850 -73.8892 28° Northeast 250 288 13,000  Level New York Center
08:23PM 40.0419 -73.8619 20° North 242 278 13,100  Climbing New York Center
08:24PM 40.0406 -73.9161 268° West 87 100 13,000 -60 Descending New York Center
08:25PM 39.9967 -73.8436 128° Southeast 101 116 13,000 -480 Level New York Center
08:26PM 40.0558 -73.8056 26° Northeast 121 139 12,100 -960 Descending New York Center
08:27PM 40.1275 -73.7789 16° North 238 274 11,200 -600 Descending New York Center
08:28PM 40.1550 -73.8397 301° West 194 223 11,000 -120 Descending New York Center
08:29PM 40.0928 -73.8261 170° South 156 180 11,000  Level New York Center
08:30PM 40.1500 -73.7167 56° Northeast 296 341 11,000 -420 Level New York TRACON
08:31PM 40.2167 -73.7000 11° North 266 306 10,100 -1,140 Descending New York TRACON
08:32PM 40.3000 -73.6833 North 286 329 8,800 -1,440 Descending New York TRACON
08:33PM 40.3667 -73.6500 21° North 290 334 7,300 -900 Descending New York TRACON
08:34PM 40.4333 -73.5833 37° Northeast 274 315 7,000 -180 Descending New York TRACON
08:35PM 40.5000 -73.5333 30° Northeast 278 320 7,000 -360 Level New York TRACON
08:36PM 40.5667 -73.4833 30° Northeast 270 311 6,300 -1,080 Descending New York TRACON
08:37PM 40.6333 -73.4833 360° North 251 289 5,000 -1,380 Descending New York TRACON
08:38PM 40.6833 -73.5000 346° North 235 270 3,700 -960 Descending New York TRACON
08:39PM 40.7333 -73.5500 323° Northwest 203 234 3,100 -540 Descending New York TRACON
08:40PM 40.7833 -73.5833 333° Northwest 196 226 2,700 -600 Descending New York TRACON
08:41PM 40.7833 -73.6333 270° West 199 229 2,000 -720 Descending New York TRACON